createdAt,value
2022-11-19T00:00:10.089Z,67.41
2022-11-19T00:03:34.163Z,68.39
2022-11-19T00:06:56.203Z,68.25
2022-11-19T00:10:19.693Z,67.43
2022-11-19T00:13:44.150Z,68.31
2022-11-19T00:17:06.142Z,67.52
2022-11-19T00:20:28.989Z,66.76
2022-11-19T00:23:54.686Z,67.82
2022-11-19T00:27:17.891Z,67.28
2022-11-19T00:30:48.493Z,66.96
2022-11-19T00:34:11.999Z,66.67
2022-11-19T00:37:33.750Z,66.13
2022-11-19T00:40:55.379Z,66.96
2022-11-19T00:44:18.267Z,67.08
2022-11-19T00:47:40.471Z,66.12
2022-11-19T00:51:02.411Z,67.07
2022-11-19T00:54:24.491Z,67.65
2022-11-19T00:57:46.502Z,66.95
2022-11-19T01:01:10.794Z,67.77
2022-11-19T01:04:32.430Z,66.70
2022-11-19T01:07:54.854Z,67.07
2022-11-19T01:11:18.559Z,67.49
2022-11-19T01:14:40.324Z,66.13
2022-11-19T01:18:03.005Z,67.26
2022-11-19T01:21:27.395Z,67.49
2022-11-19T01:24:49.252Z,66.45
2022-11-19T01:28:10.922Z,66.75
2022-11-19T01:31:32.512Z,67.17
2022-11-19T01:34:55.747Z,67.23
2022-11-19T01:38:17.606Z,66.80
2022-11-19T01:41:39.633Z,67.24
2022-11-19T01:45:04.850Z,66.53
2022-11-19T01:48:28.617Z,67.04
2022-11-19T01:51:56.762Z,66.88
2022-11-19T01:55:20.189Z,67.09
2022-11-19T01:58:45.346Z,66.54
2022-11-19T02:02:07.382Z,66.34
2022-11-19T02:05:29.694Z,67.04
2022-11-19T02:08:53.218Z,65.97
2022-11-19T02:12:27.780Z,66.15
2022-11-19T02:15:55.130Z,66.69
2022-11-19T02:19:46.090Z,66.23
2022-11-19T02:23:33.738Z,65.75
2022-11-19T02:27:34.174Z,66.18
2022-11-19T02:31:05.070Z,66.64
2022-11-19T02:34:31.628Z,66.36
2022-11-19T02:37:59.111Z,66.56
2022-11-19T02:41:35.694Z,66.57
2022-11-19T02:45:02.219Z,66.21
2022-11-19T02:48:29.834Z,66.81
2022-11-19T02:51:51.839Z,66.92
2022-11-19T02:55:14.614Z,67.46
2022-11-19T02:58:58.562Z,66.92
2022-11-19T03:02:41.174Z,66.97
2022-11-19T03:06:08.429Z,66.97
2022-11-19T03:09:32.529Z,67.32
2022-11-19T03:12:59.909Z,67.31
2022-11-19T03:16:42.474Z,66.46
2022-11-19T03:20:11.438Z,66.90
2022-11-19T03:23:38.557Z,67.15
2022-11-19T03:27:05.953Z,67.25
2022-11-19T03:30:30.493Z,67.38
2022-11-19T03:33:56.863Z,67.68
2022-11-19T03:37:22.338Z,67.52
2022-11-19T03:40:46.046Z,67.31
2022-11-19T03:44:13.118Z,67.11
2022-11-19T03:47:37.881Z,67.67
2022-11-19T03:51:04.914Z,67.48
2022-11-19T03:54:26.930Z,67.70
2022-11-19T03:57:51.018Z,68.17
2022-11-19T04:01:13.962Z,67.74
2022-11-19T04:04:39.026Z,67.93
2022-11-19T04:08:00.821Z,67.68
2022-11-19T04:14:44.605Z,68.51
2022-11-19T04:18:06.554Z,67.35
2022-11-19T04:21:28.351Z,67.86
2022-11-19T04:24:50.449Z,67.99
2022-11-19T04:28:12.437Z,67.89
2022-11-19T04:31:35.885Z,68.95
2022-11-19T04:34:57.635Z,69.53
2022-11-19T04:38:19.615Z,69.39
2022-11-19T04:41:41.937Z,69.88
2022-11-19T04:45:03.275Z,71.13
2022-11-19T04:48:26.640Z,71.56
2022-11-19T04:51:48.167Z,72.06
2022-11-19T04:55:10.895Z,71.03
2022-11-19T04:58:32.600Z,72.18
2022-11-19T05:01:54.513Z,72.25
2022-11-19T05:05:18.147Z,71.77
2022-11-19T05:08:40.108Z,71.86
2022-11-19T05:12:01.834Z,71.19
2022-11-19T05:15:23.842Z,71.46
2022-11-19T05:18:45.709Z,70.06
2022-11-19T05:22:08.702Z,70.31
2022-11-19T05:25:30.389Z,71.06
2022-11-19T05:28:52.422Z,70.37
2022-11-19T05:32:14.506Z,70.89
2022-11-19T05:35:36.714Z,72.22
2022-11-19T05:38:59.718Z,71.07
2022-11-19T05:42:21.670Z,72.40
2022-11-19T05:45:43.308Z,70.65
2022-11-19T05:49:05.338Z,71.39
2022-11-19T05:52:27.237Z,71.99
2022-11-19T05:55:50.354Z,72.01
2022-11-19T05:59:11.758Z,71.00
2022-11-19T06:02:33.691Z,71.17
2022-11-19T06:05:55.722Z,71.69
2022-11-19T06:09:17.970Z,72.01
2022-11-19T06:12:45.820Z,71.68
2022-11-19T06:16:08.837Z,70.99
2022-11-19T06:19:30.566Z,71.81
2022-11-19T06:22:52.815Z,71.16
2022-11-19T06:26:23.779Z,71.54
2022-11-19T06:29:46.923Z,72.25
2022-11-19T06:33:08.305Z,71.51
2022-11-19T06:36:35.944Z,71.67
2022-11-19T06:40:00.926Z,72.58
2022-11-19T06:43:22.949Z,71.26
2022-11-19T06:46:46.094Z,71.45
2022-11-19T06:50:08.986Z,71.35
2022-11-19T06:53:31.861Z,71.52
2022-11-19T06:56:53.918Z,71.51
2022-11-19T07:00:16.759Z,71.95
2022-11-19T07:03:40.090Z,71.60
2022-11-19T07:07:02.191Z,71.20
2022-11-19T07:10:24.199Z,71.73
2022-11-19T07:14:00.681Z,71.48
2022-11-19T07:17:22.360Z,71.63
2022-11-19T07:20:47.744Z,70.93
2022-11-19T07:24:11.023Z,71.11
2022-11-19T07:27:33.626Z,70.70
2022-11-19T07:30:55.256Z,69.92
2022-11-19T07:34:17.760Z,70.43
2022-11-19T07:37:41.808Z,70.38
2022-11-19T07:41:23.749Z,69.75
2022-11-19T07:44:47.198Z,69.95
2022-11-19T07:48:10.471Z,70.51
2022-11-19T07:51:32.266Z,70.00
2022-11-19T07:54:55.513Z,70.13
2022-11-19T07:58:17.582Z,70.00
2022-11-19T08:01:39.967Z,69.77
2022-11-19T08:05:01.710Z,69.80
2022-11-19T08:08:23.493Z,69.69
2022-11-19T08:11:46.931Z,69.87
2022-11-19T08:15:09.963Z,69.95
2022-11-19T08:18:32.919Z,70.25
2022-11-19T08:21:54.422Z,70.30
2022-11-19T08:25:15.825Z,71.12
2022-11-19T08:28:39.063Z,72.79
2022-11-19T08:32:01.150Z,73.16
2022-11-19T08:35:23.114Z,73.42
2022-11-19T08:38:45.034Z,74.31
2022-11-19T08:42:24.636Z,74.53
2022-11-19T08:45:54.855Z,74.72
2022-11-19T08:49:16.362Z,74.00
2022-11-19T08:52:38.362Z,74.45
2022-11-19T08:56:00.363Z,74.12
2022-11-19T08:59:22.414Z,74.17
2022-11-19T09:02:45.849Z,74.88
2022-11-19T09:06:08.775Z,75.40
2022-11-19T09:09:30.673Z,75.16
2022-11-19T09:12:53.216Z,74.90
2022-11-19T09:16:15.606Z,75.26
2022-11-19T09:19:38.431Z,74.75
2022-11-19T09:23:00.543Z,74.23
2022-11-19T09:26:22.331Z,74.53
2022-11-19T09:29:44.277Z,73.94
2022-11-19T09:33:06.336Z,72.89
2022-11-19T09:36:30.106Z,73.12
2022-11-19T09:39:51.849Z,72.30
2022-11-19T09:43:22.137Z,72.58
2022-11-19T09:46:52.796Z,71.31
2022-11-19T09:50:18.033Z,71.75
2022-11-19T09:53:48.069Z,72.04
2022-11-19T09:57:15.682Z,70.32
2022-11-19T10:00:37.502Z,69.54
2022-11-19T10:04:00.345Z,70.69
2022-11-19T10:07:29.800Z,69.25
2022-11-19T10:11:07.435Z,69.09
2022-11-19T10:14:59.135Z,69.23
2022-11-19T10:18:30.742Z,69.67
2022-11-19T10:22:00.429Z,69.43
2022-11-19T10:25:24.776Z,68.41
2022-11-19T10:28:54.577Z,68.89
2022-11-19T10:32:29.919Z,69.18
2022-11-19T10:35:55.606Z,69.20
2022-11-19T10:39:23.609Z,69.12
2022-11-19T10:42:51.514Z,68.50
2022-11-19T10:46:18.365Z,69.55
2022-11-19T10:49:41.926Z,70.35
2022-11-19T10:53:13.122Z,71.70
2022-11-19T10:56:39.365Z,71.72
2022-11-19T11:00:01.496Z,71.47
2022-11-19T11:03:28.457Z,71.20
2022-11-19T11:06:53.286Z,72.04
2022-11-19T11:10:33.870Z,70.95
2022-11-19T11:14:13.510Z,71.33
2022-11-19T11:17:36.595Z,70.84
2022-11-19T11:21:01.222Z,71.16
2022-11-19T11:24:23.109Z,71.71
2022-11-19T11:27:44.532Z,71.76
2022-11-19T11:31:10.313Z,71.62
2022-11-19T11:34:34.646Z,71.29
2022-11-19T11:37:57.893Z,72.04
2022-11-19T11:45:03.439Z,73.07
2022-11-19T11:48:25.544Z,73.84
2022-11-19T11:51:47.086Z,73.81
2022-11-19T11:55:15.842Z,75.13
2022-11-19T11:58:37.597Z,74.75
2022-11-19T12:02:04.030Z,76.41
2022-11-19T12:05:25.798Z,77.50
2022-11-19T12:08:53.510Z,78.62
2022-11-19T12:12:27.407Z,78.87
2022-11-19T12:15:58.382Z,79.34
2022-11-19T12:19:36.365Z,80.37
2022-11-19T12:23:17.921Z,80.64
2022-11-19T12:26:46.433Z,80.27
2022-11-19T12:30:18.243Z,80.36
2022-11-19T12:34:04.131Z,80.90
2022-11-19T12:37:38.207Z,81.00
2022-11-19T12:41:20.573Z,80.89
2022-11-19T12:44:55.675Z,80.53
2022-11-19T12:48:37.790Z,81.00
2022-11-19T12:52:08.826Z,80.90
2022-11-19T12:55:41.145Z,80.88
2022-11-19T12:59:18.357Z,80.76
2022-11-19T13:02:49.524Z,80.73
2022-11-19T13:06:18.656Z,80.88
2022-11-19T13:09:44.965Z,81.21
2022-11-19T13:13:08.951Z,81.09
2022-11-19T13:16:33.977Z,80.76
2022-11-19T13:19:59.786Z,80.54
2022-11-19T13:23:27.016Z,80.47
2022-11-19T13:26:49.230Z,80.74
2022-11-19T13:30:18.016Z,80.55
2022-11-19T13:33:44.906Z,80.72
2022-11-19T13:37:15.454Z,80.87
2022-11-19T13:40:41.891Z,80.46
2022-11-19T13:44:21.464Z,80.42
2022-11-19T13:47:46.655Z,80.65
2022-11-19T13:51:14.107Z,80.75
2022-11-19T13:54:38.048Z,80.56
2022-11-19T13:58:11.759Z,80.67
2022-11-19T14:01:49.566Z,80.52
2022-11-19T14:05:36.742Z,80.54
2022-11-19T14:09:19.341Z,80.42
2022-11-19T14:13:15.807Z,80.37
2022-11-19T14:17:03.427Z,80.20
2022-11-19T14:20:54.450Z,80.53
2022-11-19T14:25:03.018Z,80.38
2022-11-19T14:28:44.962Z,80.10
2022-11-19T14:32:35.543Z,80.25
2022-11-19T14:35:57.375Z,80.38
2022-11-19T14:39:24.706Z,80.90
2022-11-19T14:43:37.294Z,81.20
2022-11-19T14:47:33.479Z,81.24
2022-11-19T14:51:03.015Z,81.15
2022-11-19T14:54:32.919Z,81.07
2022-11-19T14:57:59.578Z,81.33
2022-11-19T15:01:23.630Z,81.35
2022-11-19T15:04:55.739Z,81.58
2022-11-19T15:08:47.116Z,81.17
2022-11-19T15:12:09.645Z,81.90
2022-11-19T15:15:42.450Z,81.50
2022-11-19T15:19:38.074Z,82.08
2022-11-19T15:23:13.004Z,82.01
2022-11-19T15:26:42.256Z,82.19
2022-11-19T15:30:17.337Z,82.26
2022-11-19T15:34:01.015Z,82.35
2022-11-19T15:37:29.087Z,82.59
2022-11-19T15:40:56.255Z,82.31
2022-11-19T15:44:20.406Z,82.51
2022-11-19T15:47:47.831Z,82.07
2022-11-19T15:51:14.859Z,82.07
2022-11-19T15:54:38.410Z,82.23
2022-11-19T15:58:15.777Z,82.13
2022-11-19T16:01:37.915Z,82.08
2022-11-19T16:04:59.582Z,82.42
2022-11-19T16:08:21.069Z,82.54
2022-11-19T16:12:00.614Z,82.87
2022-11-19T16:15:42.668Z,83.03
2022-11-19T16:19:06.918Z,83.18
2022-11-19T16:22:29.120Z,83.06
2022-11-19T16:25:51.498Z,83.07
2022-11-19T16:29:18.519Z,82.68
2022-11-19T16:32:41.694Z,83.23
2022-11-19T16:36:15.178Z,83.00
2022-11-19T16:39:38.684Z,83.12
2022-11-19T16:43:02.070Z,82.96
2022-11-19T16:46:28.573Z,83.76
2022-11-19T16:50:04.069Z,83.88
2022-11-19T16:53:46.600Z,83.67
2022-11-19T16:57:10.408Z,83.34
2022-11-19T17:00:34.605Z,83.59
2022-11-19T17:04:01.458Z,83.72
2022-11-19T17:07:27.948Z,83.73
2022-11-19T17:10:49.742Z,83.36
2022-11-19T17:14:21.363Z,83.54
2022-11-19T17:17:43.823Z,83.86
2022-11-19T17:21:08.342Z,83.89
2022-11-19T17:24:35.515Z,84.02
2022-11-19T17:27:58.479Z,84.29
2022-11-19T17:31:24.106Z,83.83
2022-11-19T17:34:49.132Z,83.95
2022-11-19T17:38:13.016Z,83.99
2022-11-19T17:41:56.497Z,83.96
2022-11-19T17:45:18.178Z,84.17
2022-11-19T17:48:42.279Z,84.25
2022-11-19T17:52:04.232Z,84.25
2022-11-19T17:55:26.150Z,84.12
2022-11-19T17:58:49.257Z,84.26
2022-11-19T18:02:14.886Z,84.73
2022-11-19T18:05:39.221Z,84.21
2022-11-19T18:09:00.883Z,84.25
2022-11-19T18:12:22.413Z,84.21
2022-11-19T18:15:45.432Z,84.40
2022-11-19T18:19:12.718Z,84.29
2022-11-19T18:22:34.671Z,84.09
2022-11-19T18:25:56.835Z,83.91
2022-11-19T18:29:18.308Z,83.92
2022-11-19T18:32:41.709Z,83.93
2022-11-19T18:36:03.702Z,83.73
2022-11-19T18:39:25.916Z,83.97
2022-11-19T18:43:01.533Z,84.33
2022-11-19T18:46:23.202Z,84.23
2022-11-19T18:49:46.469Z,84.06
2022-11-19T18:53:08.019Z,84.35
2022-11-19T18:56:29.961Z,84.39
2022-11-19T18:59:51.585Z,84.47
2022-11-19T19:03:15.460Z,84.15
2022-11-19T19:06:38.436Z,84.13
2022-11-19T19:10:00.271Z,84.33
2022-11-19T19:13:21.938Z,83.96
2022-11-19T19:16:44.068Z,83.66
2022-11-19T19:20:06.142Z,84.09
2022-11-19T19:23:29.675Z,83.42
2022-11-19T19:26:51.388Z,83.85
2022-11-19T19:30:14.121Z,83.61
2022-11-19T19:33:36.331Z,83.75
2022-11-19T19:36:58.504Z,83.90
2022-11-19T19:40:21.478Z,83.69
2022-11-19T19:43:43.355Z,83.88
2022-11-19T19:47:05.273Z,83.43
2022-11-19T19:50:26.858Z,83.98
2022-11-19T19:53:49.397Z,83.53
2022-11-19T19:57:12.603Z,83.65
2022-11-19T20:00:34.231Z,83.87
2022-11-19T20:04:00.565Z,83.29
2022-11-19T20:07:22.843Z,83.14
2022-11-19T20:10:44.313Z,83.43
2022-11-19T20:14:08.296Z,83.20
2022-11-19T20:17:30.277Z,83.30
2022-11-19T20:20:52.342Z,83.15
2022-11-19T20:24:14.350Z,83.15
2022-11-19T20:27:36.252Z,82.88
2022-11-19T20:31:06.181Z,83.16
2022-11-19T20:34:27.820Z,83.02
2022-11-19T20:37:49.455Z,83.39
2022-11-19T20:41:33.716Z,83.23
2022-11-19T20:44:54.656Z,82.93
2022-11-19T20:48:17.919Z,83.28
2022-11-19T20:51:39.655Z,82.96
2022-11-19T20:55:06.444Z,82.91
2022-11-19T20:58:28.670Z,82.96
2022-11-19T21:01:51.622Z,83.05
2022-11-19T21:05:14.870Z,82.70
2022-11-19T21:08:37.857Z,82.78
2022-11-19T21:11:59.557Z,82.60
2022-11-19T21:15:21.458Z,82.95
2022-11-19T21:18:43.979Z,82.80
2022-11-19T21:22:06.932Z,82.61
2022-11-19T21:25:28.808Z,82.82
2022-11-19T21:28:53.566Z,82.52
2022-11-19T21:32:16.059Z,83.08
2022-11-19T21:35:41.232Z,82.81
2022-11-19T21:39:04.810Z,82.55
2022-11-19T21:42:26.511Z,82.65
2022-11-19T21:45:48.967Z,82.57
2022-11-19T21:49:10.517Z,82.83
2022-11-19T21:52:32.143Z,82.89
2022-11-19T21:55:58.178Z,82.79
2022-11-19T21:59:20.290Z,82.87
2022-11-19T22:02:42.091Z,82.83
2022-11-19T22:06:06.406Z,82.87
2022-11-19T22:09:27.967Z,82.70
2022-11-19T22:12:50.762Z,82.70
2022-11-19T22:16:12.716Z,82.73
2022-11-19T22:19:34.323Z,82.87
2022-11-19T22:22:58.166Z,82.94
2022-11-19T22:26:20.133Z,82.87
2022-11-19T22:29:43.469Z,83.11
2022-11-19T22:33:05.547Z,83.06
2022-11-19T22:36:27.362Z,83.03
2022-11-19T22:39:49.308Z,83.33
2022-11-19T22:43:10.758Z,83.22
2022-11-19T22:46:33.534Z,83.24
2022-11-19T22:49:55.115Z,83.04
2022-11-19T22:53:17.277Z,83.17
2022-11-19T22:56:39.439Z,82.94
2022-11-19T23:00:00.974Z,82.87
2022-11-19T23:03:24.113Z,82.68
2022-11-19T23:06:45.593Z,82.39
2022-11-19T23:10:08.293Z,82.68
2022-11-19T23:13:33.294Z,82.64
2022-11-19T23:16:55.202Z,82.49
2022-11-19T23:20:18.190Z,82.43
2022-11-19T23:23:40.465Z,82.65
2022-11-19T23:27:02.118Z,82.50
2022-11-19T23:30:23.735Z,82.57
2022-11-19T23:33:46.347Z,82.83
2022-11-19T23:37:09.494Z,82.73
2022-11-19T23:40:31.555Z,82.42
2022-11-19T23:43:55.027Z,82.40
2022-11-19T23:47:16.731Z,82.59
2022-11-19T23:50:38.533Z,82.59
2022-11-19T23:54:01.930Z,82.98
2022-11-19T23:57:23.693Z,82.60
